Time;durP1;ratioP1;P1;durP2;ratioP2;P2;SDS_P1;SDS_P2;PMS_P1;PMS_P2;Temp;Humidity;BMP_temperature;BMP_pressure;BME280_temperature;BME280_humidity;BME280_pressure;Samples;Min_cycle;Max_cycle;Signal;HPM_P1;HPM_P2
2024/02/09 00:00:06;;;;;;;45.80;42.97;;;;;;;4.43;100.00;100345.59;5076288;28;20422;-67
2024/02/09 00:02:33;;;;;;;38.28;35.90;;;;;;;4.57;100.00;100347.47;5083415;28;20474;-67
2024/02/09 00:05:00;;;;;;;30.38;28.58;;;;;;;4.51;100.00;100348.19;5078637;28;20629;-67
2024/02/09 00:07:27;;;;;;;41.22;39.03;;;;;;;4.56;100.00;100354.53;5079190;28;20052;-67
2024/02/09 00:09:55;;;;;;;31.85;30.02;;;;;;;3.76;100.00;100346.94;5070815;28;20055;-67
2024/02/09 00:12:22;;;;;;;25.85;23.95;;;;;;;3.40;100.00;100350.00;5076962;28;20431;-67
2024/02/09 00:14:51;;;;;;;29.88;27.67;;;;;;;3.51;100.00;100354.09;5072304;28;20048;-67
2024/02/09 00:17:18;;;;;;;32.65;30.15;;;;;;;3.50;100.00;100347.19;5072525;28;20142;-67
2024/02/09 00:19:46;;;;;;;28.75;26.75;;;;;;;3.98;100.00;100347.16;5077807;28;20052;-67
2024/02/09 00:22:14;;;;;;;26.80;24.63;;;;;;;3.28;100.00;100347.91;5073500;28;20052;-67
2024/02/09 00:24:42;;;;;;;26.17;24.30;;;;;;;3.65;100.00;100352.56;5073751;28;20859;-67
2024/02/09 00:27:09;;;;;;;25.25;23.45;;;;;;;3.86;100.00;100357.22;5071573;28;20543;-67
2024/02/09 00:29:36;;;;;;;28.83;27.02;;;;;;;3.61;100.00;100354.69;5072833;28;20752;-66
2024/02/09 00:32:05;;;;;;;35.13;33.00;;;;;;;3.79;100.00;100346.59;5069377;28;20083;-65
2024/02/09 00:34:34;;;;;;;27.33;25.52;;;;;;;3.62;100.00;100351.06;5074483;28;20048;-65
2024/02/09 00:37:01;;;;;;;24.67;23.08;;;;;;;3.92;100.00;100350.47;5075855;28;20080;-67
2024/02/09 00:39:33;;;;;;;25.23;23.58;;;;;;;3.91;100.00;100352.28;5072288;28;20037;-67
2024/02/09 00:42:00;;;;;;;27.00;25.30;;;;;;;4.10;100.00;100357.13;5075448;28;20056;-65
2024/02/09 00:44:27;;;;;;;31.02;29.13;;;;;;;4.39;100.00;100352.19;5079010;28;20059;-65
2024/02/09 00:46:54;;;;;;;27.08;25.38;;;;;;;4.09;100.00;100358.13;5072849;28;20056;-65
2024/02/09 00:49:23;;;;;;;26.55;24.85;;;;;;;4.12;100.00;100357.78;5083417;28;20056;-65
2024/02/09 00:51:52;;;;;;;27.73;25.90;;;;;;;3.83;100.00;100350.50;5079870;28;20396;-65
2024/02/09 00:54:21;;;;;;;31.25;29.25;;;;;;;3.95;100.00;100345.69;5083983;28;20638;-65
2024/02/09 00:56:48;;;;;;;26.60;24.90;;;;;;;4.42;100.00;100343.94;5078520;28;20532;-67
2024/02/09 00:59:17;;;;;;;27.88;25.80;;;;;;;4.93;100.00;100341.56;5081001;28;20048;-67
2024/02/09 01:01:44;;;;;;;28.52;26.73;;;;;;;5.21;100.00;100345.28;5075953;28;20098;-67
2024/02/09 01:04:11;;;;;;;33.95;31.45;;;;;;;5.05;100.00;100343.63;5075968;28;20044;-67
2024/02/09 01:06:40;;;;;;;28.83;26.98;;;;;;;4.10;100.00;100341.34;5079711;28;20523;-67
2024/02/09 01:09:08;;;;;;;26.38;24.67;;;;;;;4.71;100.00;100338.78;5078571;28;20202;-67
2024/02/09 01:11:38;;;;;;;26.77;25.08;;;;;;;4.32;100.00;100334.47;5076373;28;20048;-67
2024/02/09 02:46:56;;;;;;;26.95;25.08;;;;;;;3.46;100.00;100306.50;5077123;28;20469;-65
2024/02/09 03:05:54;;;;;;;27.25;25.85;;;;;;;2.81;100.00;100331.03;5082916;28;20097;-65
2024/02/09 03:08:21;;;;;;;26.30;24.90;;;;;;;2.94;100.00;100334.00;5078995;28;20051;-65
2024/02/09 03:10:48;;;;;;;31.90;30.30;;;;;;;2.53;100.00;100326.13;5079397;28;20048;-65
2024/02/09 03:13:15;;;;;;;27.50;26.05;;;;;;;2.57;100.00;100331.84;5082947;28;20538;-65
2024/02/09 03:15:44;;;;;;;30.90;29.23;;;;;;;2.61;100.00;100329.75;5076977;28;20427;-65
2024/02/09 03:18:11;;;;;;;32.85;31.08;;;;;;;2.46;100.00;100340.88;5077169;28;20443;-65
2024/02/09 03:20:40;;;;;;;26.95;25.35;;;;;;;2.53;100.00;100346.28;5081058;28;20037;-65
2024/02/09 03:23:07;;;;;;;25.73;24.33;;;;;;;2.77;100.00;100348.09;5079184;28;20543;-65
2024/02/09 03:25:34;;;;;;;30.65;28.92;;;;;;;2.50;100.00;100352.66;5082691;28;20043;-65
2024/02/09 03:28:01;;;;;;;27.95;26.45;;;;;;;2.60;100.00;100356.94;5067508;28;20062;-65
2024/02/09 03:30:27;;;;;;;22.02;20.80;;;;;;;2.66;100.00;100361.53;5081108;28;20522;-65
2024/02/09 03:32:56;;;;;;;25.15;23.75;;;;;;;2.93;100.00;100355.97;5071255;28;20455;-65
2024/02/09 03:35:25;;;;;;;27.00;25.50;;;;;;;2.84;100.00;100364.81;5073444;28;20050;-65
2024/02/09 03:37:51;;;;;;;25.20;23.52;;;;;;;3.01;100.00;100370.88;5084574;28;20543;-65
2024/02/09 03:40:19;;;;;;;21.05;19.85;;;;;;;3.09;100.00;100368.28;5076478;28;20052;-67
2024/02/09 03:42:45;;;;;;;22.55;21.15;;;;;;;2.64;100.00;100366.13;5080428;28;20052;-65
2024/02/09 03:45:12;;;;;;;24.40;23.00;;;;;;;2.50;100.00;100364.97;5077295;28;20574;-67
2024/02/09 03:47:39;;;;;;;24.48;22.98;;;;;;;2.64;100.00;100350.41;5076663;28;20052;-67
2024/02/09 03:50:08;;;;;;;26.27;24.67;;;;;;;2.55;100.00;100359.25;5076740;28;20051;-67
2024/02/09 03:52:35;;;;;;;26.50;24.90;;;;;;;2.74;100.00;100351.88;5080380;28;20055;-66
2024/02/09 03:55:02;;;;;;;29.65;27.65;;;;;;;2.19;100.00;100352.47;5080663;28;20067;-67
2024/02/09 03:57:31;;;;;;;24.45;22.85;;;;;;;2.47;100.00;100355.63;5066845;28;20056;-67
2024/02/09 03:59:58;;;;;;;30.70;28.90;;;;;;;2.30;100.00;100351.34;5075413;28;20434;-67
2024/02/09 04:02:28;;;;;;;25.38;23.45;;;;;;;2.32;100.00;100345.94;5074474;28;20048;-66
2024/02/09 04:04:55;;;;;;;24.38;22.98;;;;;;;2.68;100.00;100347.28;5068884;28;20048;-66
2024/02/09 04:07:23;;;;;;;25.42;23.92;;;;;;;2.60;100.00;100359.56;5074624;28;20064;-66
2024/02/09 04:09:50;;;;;;;28.98;27.27;;;;;;;2.42;100.00;100352.69;5073630;28;20069;-64
2024/02/09 04:12:18;;;;;;;28.08;26.27;;;;;;;2.55;100.00;100359.25;5077720;28;20052;-66
2024/02/09 04:14:45;;;;;;;26.70;25.20;;;;;;;2.22;100.00;100352.13;5076376;28;20079;-66
2024/02/09 04:17:12;;;;;;;26.02;24.60;;;;;;;2.18;100.00;100352.59;5069931;28;20044;-67
2024/02/09 04:19:39;;;;;;;30.40;28.70;;;;;;;2.32;100.00;100345.94;5073200;28;20054;-65
2024/02/09 04:22:08;;;;;;;27.38;25.67;;;;;;;1.99;100.00;100349.28;5078212;28;20113;-65
2024/02/09 04:24:37;;;;;;;27.02;25.42;;;;;;;2.01;100.00;100349.13;5077614;28;20044;-65
2024/02/09 04:27:05;;;;;;;26.58;25.08;;;;;;;2.04;100.00;100343.56;5073855;28;20044;-65
2024/02/09 04:29:33;;;;;;;32.78;30.63;;;;;;;1.94;100.00;100348.16;5073153;28;20051;-66
2024/02/09 04:32:01;;;;;;;27.48;25.98;;;;;;;1.77;100.00;100350.69;5079245;28;20044;-65
2024/02/09 04:34:28;;;;;;;28.52;26.83;;;;;;;1.74;100.00;100355.41;5079939;28;20576;-64
2024/02/09 04:36:56;;;;;;;32.25;30.35;;;;;;;1.80;100.00;100355.59;5075359;28;20056;-65
2024/02/09 04:39:23;;;;;;;30.02;28.38;;;;;;;1.96;100.00;100354.03;5078298;28;20176;-65
2024/02/09 04:41:52;;;;;;;25.33;23.83;;;;;;;1.95;100.00;100344.53;5082954;28;20054;-65
2024/02/09 04:44:21;;;;;;;25.65;23.95;;;;;;;1.88;100.00;100354.84;5081212;28;20456;-65
2024/02/09 04:46:48;;;;;;;31.15;28.70;;;;;;;2.02;100.00;100354.19;5073340;28;20763;-65
2024/02/09 04:49:16;;;;;;;33.72;31.13;;;;;;;2.03;100.00;100349.81;5069880;28;20510;-65
2024/02/09 04:51:43;;;;;;;40.97;37.92;;;;;;;2.20;100.00;100358.50;5071248;28;20416;-65
2024/02/09 04:54:11;;;;;;;56.72;51.30;;;;;;;2.28;100.00;100364.59;5082432;28;20075;-65
2024/02/09 04:56:38;;;;;;;29.70;27.80;;;;;;;2.37;100.00;100370.69;5074150;28;20058;-65
2024/02/09 04:59:08;;;;;;;31.80;28.50;;;;;;;2.26;100.00;100368.34;5082826;28;20055;-67
2024/02/09 05:01:38;;;;;;;32.30;29.88;;;;;;;2.47;100.00;100370.53;5077177;28;20048;-66
2024/02/09 05:04:07;;;;;;;29.67;27.60;;;;;;;2.19;100.00;100368.19;5070464;28;20485;-66
2024/02/09 05:06:34;;;;;;;32.25;30.50;;;;;;;1.82;100.00;100369.38;5068374;28;20079;-67
2024/02/09 05:09:03;;;;;;;23.90;22.00;;;;;;;1.81;100.00;100375.56;5081292;28;20040;-66
2024/02/09 05:11:33;;;;;;;23.30;20.77;;;;;;;1.83;100.00;100372.81;5077026;28;20055;-66
2024/02/09 05:14:00;;;;;;;21.88;20.50;;;;;;;1.59;100.00;100371.72;5084509;28;20052;-66
2024/02/09 05:16:32;;;;;;;21.58;20.27;;;;;;;1.99;100.00;100362.38;5078815;28;20091;-66
2024/02/09 05:19:01;;;;;;;21.75;20.25;;;;;;;1.63;100.00;100363.53;5076321;28;20074;-67
2024/02/09 05:21:28;;;;;;;22.65;21.25;;;;;;;1.40;100.00;100368.50;5077820;28;20040;-66
2024/02/09 05:23:55;;;;;;;23.73;21.52;;;;;;;1.35;100.00;100374.19;5077594;28;20068;-67
2024/02/09 05:26:22;;;;;;;24.40;22.80;;;;;;;1.18;100.00;100378.50;5082046;28;20048;-66
2024/02/09 05:28:49;;;;;;;24.13;22.63;;;;;;;1.02;100.00;100379.19;5075659;28;20056;-66
2024/02/09 05:31:17;;;;;;;22.90;21.40;;;;;;;1.07;100.00;100386.59;5079606;28;20055;-66
2024/02/09 05:33:46;;;;;;;22.80;21.30;;;;;;;1.10;100.00;100383.69;5072297;28;20056;-66
2024/02/09 05:36:21;;;;;;;25.83;24.23;;;;;;;1.18;100.00;100395.97;5085760;28;20062;-66
2024/02/09 05:38:48;;;;;;;24.30;22.80;;;;;;;1.38;100.00;100392.19;5078574;28;20048;-66
2024/02/09 05:41:16;;;;;;;23.42;22.02;;;;;;;1.33;100.00;100397.91;5093793;28;20058;-75
2024/02/09 05:43:43;;;;;;;22.00;20.70;;;;;;;1.24;100.00;100392.75;5088573;28;20431;-66
2024/02/09 05:46:10;;;;;;;23.85;22.35;;;;;;;3.02;100.00;100398.75;5095532;28;20043;-66
2024/02/09 05:48:38;;;;;;;23.70;22.10;;;;;;;1.73;100.00;100396.50;5080952;28;20095;-66
2024/02/09 05:51:10;;;;;;;22.05;20.70;;;;;;;1.82;100.00;100403.41;5067223;28;20060;-66
2024/02/09 05:53:37;;;;;;;22.00;20.60;;;;;;;1.98;100.00;100404.47;5075941;28;20048;-64
2024/02/09 05:56:05;;;;;;;23.27;21.77;;;;;;;1.78;100.00;100409.09;5080344;28;20055;-66
2024/02/09 05:58:34;;;;;;;23.20;21.80;;;;;;;1.75;100.00;100414.66;5083537;28;20068;-66
2024/02/09 06:01:01;;;;;;;25.70;23.73;;;;;;;1.94;100.00;100413.63;5078773;28;20097;-66
2024/02/09 06:03:29;;;;;;;24.15;22.58;;;;;;;2.41;100.00;100415.75;5077448;28;20070;-64
2024/02/09 06:05:56;;;;;;;24.88;23.38;;;;;;;2.28;100.00;100403.91;5082705;28;20056;-64
2024/02/09 06:08:24;;;;;;;23.05;21.70;;;;;;;2.66;100.00;100420.06;5076216;28;20056;-64
2024/02/09 06:10:52;;;;;;;23.30;22.00;;;;;;;2.67;100.00;100415.66;5080851;28;20063;-64
2024/02/09 06:13:18;;;;;;;25.33;23.88;;;;;;;2.85;100.00;100426.81;5083144;28;20150;-64
2024/02/09 06:15:45;;;;;;;23.90;22.40;;;;;;;3.11;100.00;100420.56;5079975;28;20048;-64
2024/02/09 06:18:13;;;;;;;23.17;21.58;;;;;;;3.48;100.00;100414.81;5082493;28;20692;-65
2024/02/09 06:20:39;;;;;;;25.23;23.52;;;;;;;3.82;100.00;100411.94;5078932;28;20056;-66
2024/02/09 06:23:06;;;;;;;24.42;22.83;;;;;;;3.82;100.00;100409.31;5076726;28;20052;-64
2024/02/09 06:25:36;;;;;;;26.92;25.02;;;;;;;4.93;100.00;100408.22;5082512;28;20056;-65
2024/02/09 06:28:03;;;;;;;25.55;23.95;;;;;;;7.19;100.00;100412.91;5081967;28;20048;-65
2024/02/09 06:30:31;;;;;;;25.55;23.90;;;;;;;5.29;100.00;100412.81;5090011;28;20522;-65
2024/02/09 06:32:58;;;;;;;26.20;24.50;;;;;;;5.68;100.00;100411.78;5081298;28;20058;-65
2024/02/09 06:35:24;;;;;;;25.88;24.17;;;;;;;5.77;100.00;100412.53;5075423;28;20151;-65
2024/02/09 06:37:52;;;;;;;27.17;25.27;;;;;;;5.84;100.00;100413.41;5074724;28;20056;-65
2024/02/09 06:40:19;;;;;;;25.85;24.05;;;;;;;6.14;100.00;100409.81;5083424;28;20048;-65
2024/02/09 06:42:48;;;;;;;25.30;23.50;;;;;;;6.32;100.00;100414.66;5087193;28;20419;-65
2024/02/09 06:45:16;;;;;;;27.30;25.27;;;;;;;5.94;100.00;100414.81;5076335;28;20309;-65
2024/02/09 06:47:43;;;;;;;25.30;23.55;;;;;;;5.69;100.00;100419.53;5085397;28;20123;-64
2024/02/09 06:50:11;;;;;;;26.23;24.23;;;;;;;7.08;100.00;100414.22;5072906;28;20507;-65
2024/02/09 06:52:40;;;;;;;24.80;23.20;;;;;;;7.00;100.00;100415.19;5079752;28;20052;-65
2024/02/09 06:55:11;;;;;;;24.67;23.02;;;;;;;8.05;100.00;100408.16;5085253;28;20048;-65
2024/02/09 06:57:44;;;;;;;25.52;23.73;;;;;;;8.06;100.00;100406.34;5082376;28;20536;-65
2024/02/09 07:00:14;;;;;;;;;;;;;;;8.76;100.00;100401.69;5084249;28;20134;-65
2024/02/09 07:02:42;;;;;;;26.00;24.10;;;;;;;8.38;100.00;100399.50;5089389;28;19924;-65
2024/02/09 07:05:11;;;;;;;26.38;24.48;;;;;;;8.73;100.00;100399.44;5080787;28;20179;-66
2024/02/09 07:07:43;;;;;;;27.95;25.95;;;;;;;8.67;100.00;100404.50;5084718;28;20044;-65
2024/02/09 07:10:11;;;;;;;28.73;26.63;;;;;;;9.87;100.00;100401.81;5082649;28;20084;-64
2024/02/09 07:12:38;;;;;;;27.73;25.73;;;;;;;9.83;100.00;100400.59;5087259;28;20129;-67
2024/02/09 07:15:06;;;;;;;26.73;24.83;;;;;;;9.63;100.00;100411.25;5090409;28;20127;-67
2024/02/09 07:17:37;;;;;;;27.80;25.85;;;;;;;9.90;100.00;100413.84;5077135;28;20039;-67
2024/02/09 07:20:05;;;;;;;27.60;25.83;;;;;;;10.68;100.00;100401.28;5076370;28;20472;-67
2024/02/09 07:22:35;;;;;;;30.52;28.73;;;;;;;10.47;100.00;100409.56;5068339;28;20057;-67
2024/02/09 07:25:02;;;;;;;31.95;30.10;;;;;;;10.75;100.00;100406.53;5079828;28;20516;-67
2024/02/09 07:27:29;;;;;;;29.60;27.80;;;;;;;10.82;100.00;100409.94;5074986;28;20055;-67
2024/02/09 07:29:56;;;;;;;30.48;28.77;;;;;;;12.08;100.00;100416.00;5082740;28;20048;-67
2024/02/09 07:32:23;;;;;;;27.13;25.52;;;;;;;11.55;100.00;100408.53;5084011;28;20036;-67
2024/02/09 07:34:52;;;;;;;33.13;31.10;;;;;;;11.68;100.00;100421.72;5077429;28;20052;-67
2024/02/09 07:37:19;;;;;;;31.20;29.50;;;;;;;12.22;100.00;100413.97;5081022;28;20144;-68
2024/02/09 07:39:46;;;;;;;25.33;23.73;;;;;;;12.14;100.00;100412.44;5083951;28;20055;-71
2024/02/09 07:42:13;;;;;;;30.38;28.20;;;;;;;12.98;100.00;100412.50;5080816;28;20068;-69
2024/02/09 07:44:40;;;;;;;31.88;29.25;;;;;;;12.48;100.00;100410.97;5078183;28;20514;-68
2024/02/09 07:47:07;;;;;;;27.55;25.85;;;;;;;12.48;100.00;100402.19;5083659;28;20052;-68
2024/02/09 07:49:35;;;;;;;26.58;24.80;;;;;;;13.42;100.00;100415.72;5084292;28;20048;-67
2024/02/09 07:52:04;;;;;;;26.20;24.60;;;;;;;13.45;100.00;100412.59;5081504;28;20036;-69
2024/02/09 07:54:31;;;;;;;28.45;26.65;;;;;;;13.83;100.00;100409.44;5082271;28;20134;-70
2024/02/09 07:56:58;;;;;;;26.73;24.83;;;;;;;13.57;100.00;100402.72;5077996;28;20140;-69
2024/02/09 07:59:25;;;;;;;27.20;25.50;;;;;;;13.68;100.00;100409.13;5085388;28;20515;-69
2024/02/09 08:01:52;;;;;;;25.52;23.90;;;;;;;14.04;100.00;100409.84;5077371;28;20063;-69
2024/02/09 08:04:20;;;;;;;27.67;25.77;;;;;;;14.65;100.00;100398.50;5079598;28;20060;-69
2024/02/09 08:06:47;;;;;;;25.52;23.92;;;;;;;14.84;100.00;100396.41;5078221;28;20044;-69
2024/02/09 08:09:16;;;;;;;31.25;29.27;;;;;;;15.25;100.00;100393.56;5072939;28;20132;-67
2024/02/09 08:11:45;;;;;;;34.35;32.25;;;;;;;15.10;100.00;100392.31;5079359;28;20047;-68
2024/02/09 08:14:12;;;;;;;29.30;27.50;;;;;;;16.01;100.00;100394.66;5082843;28;20056;-68
2024/02/09 08:16:39;;;;;;;30.90;28.90;;;;;;;16.10;100.00;100392.38;5100921;28;20063;-66
2024/02/09 08:19:09;;;;;;;32.50;30.45;;;;;;;16.18;100.00;100391.91;5074610;28;20082;-65
2024/02/09 08:21:38;;;;;;;29.98;27.83;;;;;;;16.76;100.00;100386.88;5078535;28;20044;-65
2024/02/09 08:24:06;;;;;;;30.13;28.02;;;;;;;16.97;100.00;100384.38;5074792;28;20048;-65
2024/02/09 08:26:35;;;;;;;27.70;25.90;;;;;;;17.32;100.00;100381.16;5076440;28;20056;-67
2024/02/09 08:29:01;;;;;;;29.23;27.42;;;;;;;16.59;100.00;100381.63;5071020;28;20044;-65
2024/02/09 08:31:28;;;;;;;35.90;33.80;;;;;;;17.33;100.00;100375.53;5073982;28;20055;-67
2024/02/09 08:33:55;;;;;;;29.83;28.02;;;;;;;16.90;100.00;100374.69;5087518;28;20428;-67
2024/02/09 08:36:23;;;;;;;32.67;30.58;;;;;;;17.57;100.00;100377.81;5078366;28;20424;-67
2024/02/09 08:38:51;;;;;;;27.95;26.15;;;;;;;16.91;100.00;100370.13;5082424;28;20825;-67
2024/02/09 08:41:19;;;;;;;26.40;24.50;;;;;;;16.45;100.00;100362.44;5079191;28;20538;-67
2024/02/09 08:43:47;;;;;;;33.40;31.08;;;;;;;15.12;100.00;100371.44;5085529;28;20062;-67
2024/02/09 08:46:15;;;;;;;37.03;34.72;;;;;;;14.43;100.00;100366.28;5064076;28;20052;-67
2024/02/09 08:48:42;;;;;;;30.98;28.58;;;;;;;14.19;100.00;100362.91;5075689;28;20075;-67
2024/02/09 08:51:08;;;;;;;29.17;27.10;;;;;;;15.10;100.00;100356.72;5081320;28;20048;-67
2024/02/09 08:53:37;;;;;;;29.10;27.00;;;;;;;15.02;100.00;100363.28;5074782;28;20067;-67
2024/02/09 08:56:05;;;;;;;34.80;31.27;;;;;;;15.18;100.00;100366.19;5070310;28;20471;-67
2024/02/09 08:58:32;;;;;;;31.33;29.13;;;;;;;14.61;100.00;100373.31;5075317;28;20079;-67
2024/02/09 09:01:00;;;;;;;32.35;30.25;;;;;;;15.11;100.00;100371.72;5066593;28;20067;-67
2024/02/09 09:03:27;;;;;;;32.72;30.63;;;;;;;15.10;100.00;100372.78;5078857;28;20135;-67
2024/02/09 09:05:54;;;;;;;26.85;24.95;;;;;;;15.17;100.00;100373.41;5071180;28;20056;-67
2024/02/09 09:08:21;;;;;;;35.08;32.67;;;;;;;15.00;100.00;100369.94;5074555;28;20087;-67
2024/02/09 09:10:48;;;;;;;33.72;31.52;;;;;;;15.04;100.00;100371.88;5074942;28;20131;-65
2024/02/09 09:13:15;;;;;;;29.15;27.15;;;;;;;14.70;100.00;100384.41;5082425;28;20062;-66
2024/02/09 09:15:42;;;;;;;26.75;24.95;;;;;;;14.55;100.00;100378.78;5069565;28;20048;-66
2024/02/09 09:18:11;;;;;;;36.05;33.35;;;;;;;14.27;100.00;100375.06;5080652;28;20051;-67
2024/02/09 09:20:38;;;;;;;34.28;32.17;;;;;;;13.85;100.00;100371.81;5079844;28;20095;-65
2024/02/09 09:23:06;;;;;;;29.58;27.67;;;;;;;14.32;100.00;100377.84;5079955;28;20806;-67
2024/02/09 09:25:33;;;;;;;27.27;25.45;;;;;;;14.36;100.00;100376.28;5069048;28;20063;-65
2024/02/09 09:28:00;;;;;;;30.02;28.02;;;;;;;14.67;100.00;100371.53;5074015;28;20052;-65
2024/02/09 09:30:27;;;;;;;31.58;29.52;;;;;;;14.72;100.00;100368.13;5087770;28;20044;-65
2024/02/09 09:32:55;;;;;;;32.40;30.35;;;;;;;14.56;100.00;100357.19;5075086;28;20044;-68
2024/02/09 09:35:24;;;;;;;32.40;30.50;;;;;;;14.24;100.00;100356.84;5069022;28;20420;-68
2024/02/09 09:37:51;;;;;;;30.13;28.23;;;;;;;16.51;100.00;100349.09;5080641;28;20472;-68
2024/02/09 09:40:20;;;;;;;28.13;26.33;;;;;;;15.60;100.00;100345.09;5082560;28;20442;-68
2024/02/09 09:42:47;;;;;;;31.88;29.88;;;;;;;15.89;100.00;100348.47;5077797;28;20393;-68
2024/02/09 09:45:14;;;;;;;34.63;32.42;;;;;;;15.02;100.00;100339.22;5080075;28;20545;-68
2024/02/09 10:24:39;;;;;;;31.08;29.02;;;;;;;16.27;100.00;100310.00;4665177;28;10001522;-67
2024/02/09 10:27:10;;;;;;;33.70;31.50;;;;;;;16.21;100.00;100299.50;4994760;28;20154;-68
2024/02/09 10:29:38;;;;;;;31.20;29.10;;;;;;;18.49;100.00;100294.81;4999899;28;20053;-67
2024/02/09 10:32:07;;;;;;;27.90;26.00;;;;;;;17.14;100.00;100299.19;4995999;28;20499;-68
2024/02/09 10:34:35;;;;;;;30.38;28.48;;;;;;;16.38;100.00;100294.03;4988009;28;20062;-68
2024/02/09 10:37:03;;;;;;;29.27;27.33;;;;;;;16.61;100.00;100290.19;4995311;28;20056;-68
2024/02/09 10:39:30;;;;;;;32.90;30.50;;;;;;;19.11;100.00;100282.94;4997002;28;20073;-68
2024/02/09 10:42:02;;;;;;;31.80;29.50;;;;;;;17.44;100.00;100281.63;4990628;28;20534;-67
2024/02/09 10:44:31;;;;;;;;;;;;;;;16.89;100.00;100286.44;4989798;28;20062;-67
2024/02/09 10:46:59;;;;;;;30.45;28.35;;;;;;;16.84;100.00;100286.38;5002362;28;20570;-68
2024/02/09 10:49:29;;;;;;;29.77;27.77;;;;;;;15.98;100.00;100274.63;4987984;28;20064;-68
2024/02/09 10:52:00;;;;;;;28.83;26.73;;;;;;;17.68;100.00;100265.88;4998040;28;20051;-67
2024/02/09 10:54:36;;;;;;;30.23;28.02;;;;;;;16.41;100.00;100261.38;4993389;28;20051;-68
2024/02/09 10:57:06;;;;;;;30.17;27.98;;;;;;;18.37;99.96;100252.06;4996599;28;20145;-68
2024/02/09 10:59:35;;;;;;;29.08;26.98;;;;;;;16.20;100.00;100252.34;4986857;28;20504;-68
2024/02/09 11:02:04;;;;;;;29.98;27.98;;;;;;;16.97;100.00;100256.41;4997286;28;20546;-67
2024/02/09 11:04:33;;;;;;;30.58;28.58;;;;;;;17.50;100.00;100248.38;4993489;28;20081;-68
2024/02/09 11:07:00;;;;;;;27.20;25.23;;;;;;;17.10;100.00;100250.63;4996525;28;20132;-67
2024/02/09 11:09:27;;;;;;;29.83;27.73;;;;;;;17.65;100.00;100240.38;4995639;28;20050;-67
2024/02/09 11:11:54;;;;;;;31.40;29.30;;;;;;;16.63;100.00;100243.31;4994518;28;20590;-67
2024/02/09 11:14:30;;;;;;;37.92;35.42;;;;;;;17.46;100.00;100237.34;5001288;28;20057;-67
2024/02/09 11:17:01;;;;;;;33.83;31.63;;;;;;;17.47;100.00;100230.91;4988465;28;20054;-67
2024/02/09 11:19:28;;;;;;;28.90;27.00;;;;;;;18.81;100.00;100218.44;4997531;28;20065;-67
2024/02/09 11:21:57;;;;;;;30.27;28.27;;;;;;;18.04;100.00;100223.81;4986552;28;20521;-67
2024/02/09 11:24:25;;;;;;;29.02;26.92;;;;;;;18.38;96.85;100223.31;4990183;28;20964;-67
2024/02/09 11:26:52;;;;;;;30.30;28.20;;;;;;;19.60;84.36;100232.94;4981586;28;20053;-68
2024/02/09 11:29:20;;;;;;;32.15;29.85;;;;;;;20.19;75.65;100228.56;4978505;28;20061;-68
2024/02/09 11:31:51;;;;;;;31.55;28.90;;;;;;;19.23;83.21;100220.72;4976143;28;20054;-68
2024/02/09 11:34:19;;;;;;;30.67;28.38;;;;;;;18.56;90.47;100228.13;4981208;28;20081;-68
2024/02/09 11:36:46;;;;;;;29.20;27.10;;;;;;;17.03;100.00;100233.13;4978077;28;20610;-68
2024/02/09 11:39:13;;;;;;;29.58;27.38;;;;;;;15.42;100.00;100222.31;4983221;28;20133;-67
2024/02/09 11:41:42;;;;;;;28.45;26.35;;;;;;;17.96;100.00;100224.34;4981128;28;20053;-67
2024/02/09 11:44:09;;;;;;;28.20;26.20;;;;;;;17.66;100.00;100228.53;4980670;28;20053;-67
2024/02/09 11:46:37;;;;;;;30.90;28.85;;;;;;;17.93;100.00;100222.19;4980692;28;20061;-65
2024/02/09 11:49:07;;;;;;;33.13;30.73;;;;;;;17.06;100.00;100220.00;4972844;28;20133;-65
2024/02/09 11:51:34;;;;;;;33.30;30.98;;;;;;;18.16;96.92;100207.44;4975493;28;20581;-65
2024/02/09 11:54:03;;;;;;;32.35;29.85;;;;;;;18.45;94.38;100215.75;4977161;28;20069;-65
2024/02/09 11:56:30;;;;;;;30.67;28.58;;;;;;;18.19;98.67;100209.59;4985082;28;20058;-65
2024/02/09 11:58:57;;;;;;;34.03;31.83;;;;;;;18.13;84.91;100211.47;4980179;28;20073;-65
2024/02/09 12:01:25;;;;;;;33.67;31.58;;;;;;;17.85;95.63;100207.38;4984869;28;20145;-65
2024/02/09 12:03:52;;;;;;;30.73;28.83;;;;;;;19.61;70.93;100203.03;4981261;28;20046;-65
2024/02/09 12:06:21;;;;;;;31.13;29.23;;;;;;;18.67;73.63;100208.22;4985688;28;20062;-65
2024/02/09 12:08:50;;;;;;;31.23;29.05;;;;;;;20.48;63.50;100193.50;4977073;28;20065;-65
2024/02/09 12:11:18;;;;;;;27.85;25.85;;;;;;;19.10;68.25;100197.91;4971301;28;20054;-65
2024/02/09 12:13:46;;;;;;;30.20;28.20;;;;;;;19.82;68.87;100197.56;4988345;28;20507;-65
2024/02/09 12:16:15;;;;;;;30.50;28.50;;;;;;;19.95;60.20;100193.44;4977998;28;20073;-65
2024/02/09 12:18:44;;;;;;;25.58;23.70;;;;;;;19.01;65.18;100196.06;4984262;28;20049;-65
2024/02/09 12:21:11;;;;;;;31.40;29.20;;;;;;;19.29;74.14;100195.38;4979251;28;20113;-65
2024/02/09 12:23:40;;;;;;;31.77;29.67;;;;;;;20.24;62.19;100185.38;4980043;28;20414;-65
2024/02/09 12:26:08;;;;;;;30.33;28.13;;;;;;;19.00;67.76;100184.47;4979428;28;20501;-65
2024/02/09 12:28:36;;;;;;;33.90;31.70;;;;;;;19.30;64.89;100190.81;4981607;28;20153;-65
2024/02/09 12:31:05;;;;;;;36.28;33.97;;;;;;;20.09;60.57;100186.28;4986077;28;20145;-65
2024/02/09 12:33:33;;;;;;;32.22;29.92;;;;;;;18.43;67.86;100182.97;4977662;28;20046;-65
2024/02/09 12:36:07;;;;;;;31.15;29.05;;;;;;;18.34;77.29;100181.91;4976582;28;20428;-65
2024/02/09 12:38:38;;;;;;;33.40;30.92;;;;;;;19.75;65.07;100178.19;4976995;28;20160;-65
2024/02/09 12:41:07;;;;;;;32.08;30.08;;;;;;;19.49;62.50;100181.03;4973331;28;20117;-65
2024/02/09 12:43:34;;;;;;;34.30;32.15;;;;;;;19.60;65.01;100171.78;4972658;28;20053;-65
2024/02/09 12:46:01;;;;;;;33.83;31.52;;;;;;;18.96;63.51;100183.41;4977487;28;20062;-65
2024/02/09 12:48:28;;;;;;;31.70;29.60;;;;;;;18.86;72.46;100184.25;4978686;28;20530;-65
2024/02/09 12:50:56;;;;;;;29.40;27.35;;;;;;;18.12;71.67;100182.97;4979337;28;20507;-65
2024/02/09 12:53:23;;;;;;;29.42;27.17;;;;;;;18.73;62.46;100188.31;4967241;28;20299;-65
2024/02/09 12:55:50;;;;;;;34.85;32.35;;;;;;;20.65;59.13;100183.13;4988291;28;20072;-65
2024/02/09 12:58:20;;;;;;;34.55;32.05;;;;;;;18.93;71.05;100182.06;4970666;28;20509;-65
2024/02/09 13:00:48;;;;;;;38.90;36.10;;;;;;;18.53;64.93;100173.00;4973350;28;21019;-65
2024/02/09 13:03:15;;;;;;;35.72;33.13;;;;;;;18.03;69.54;100179.19;4982776;28;20239;-65
2024/02/09 13:05:42;;;;;;;31.75;29.65;;;;;;;18.32;70.21;100187.53;4978086;28;20062;-65
2024/02/09 13:08:10;;;;;;;32.45;30.25;;;;;;;17.61;78.70;100172.16;4970748;28;20058;-65
2024/02/09 13:10:37;;;;;;;34.53;32.33;;;;;;;18.35;68.93;100176.25;4975154;28;20047;-65
2024/02/09 13:13:06;;;;;;;29.25;27.15;;;;;;;18.04;73.27;100175.47;4977091;28;22294;-65
2024/02/09 13:15:34;;;;;;;33.05;30.65;;;;;;;17.43;85.97;100181.50;4981122;28;20562;-65
2024/02/09 13:18:02;;;;;;;32.88;30.58;;;;;;;18.71;71.28;100173.50;4982479;28;20043;-65
2024/02/09 13:20:28;;;;;;;33.22;30.92;;;;;;;18.14;77.36;100169.28;4969966;28;20676;-65
2024/02/09 13:22:57;;;;;;;34.60;32.05;;;;;;;17.67;83.33;100175.63;4981044;28;20062;-65
2024/02/09 13:25:24;;;;;;;33.67;31.05;;;;;;;17.54;81.62;100183.13;4981928;28;20065;-66
2024/02/09 13:27:51;;;;;;;35.15;32.75;;;;;;;17.57;83.60;100173.75;4978957;28;20069;-67
2024/02/09 13:30:19;;;;;;;32.80;30.30;;;;;;;17.65;85.93;100175.91;4971267;28;20054;-67
2024/02/09 13:32:48;;;;;;;29.90;27.63;;;;;;;18.07;80.36;100172.25;4974853;28;20081;-67
2024/02/09 13:35:17;;;;;;;30.98;28.85;;;;;;;17.91;78.37;100171.41;4976202;28;20611;-67